Terminal Aerodrome Forecast
Issued by NWS

Home | Current Version | Previous Version | Text Only | Print | Product List | Glossary On
Versions: 1 2 3 4 5 6 7 8 9 10 11 12 13 14 15 16 17 18 19 20
260
FTUS44 KCRP 062113 AAA
TAFALI
TAF AMD
KALI 062113Z 0621/0718 35005KT P6SM SKC
     FM070100 02008KT P6SM SCT020
     FM070500 02009KT P6SM BKN018
     FM070900 03007KT P6SM SCT008 OVC015
     FM071400 03006KT P6SM BKN008 OVC015
      TEMPO 0714/0718 5SM -DZ BR OVC008=

USA.gov is the U.S. government's official web portal to all federal, state and local government web resources and services.